Cowen, WV (26206)

5:29 PM EDT on September 02, 2014 (GMT -0400)
Webster Springs | Change Station
CLOSE
Current Station
Personal Weather Station
Location: Webster Springs, WV
Elevation: 1526 ft
Nearby Weather Stations

Elev 1526 ft 38.48 °N, 80.42 °W | Updated 35 seconds ago

Clear
Clear
77.8 °F
Feels Like 80 °F
N
0.0
Wind Variable Wind from North
Gusts 0.0 mph

Today
High -- | Low -- °F
--% Chance of Precip.
Yesterday
High -- | Low -- °F
Precip. -- in
6:52 AM 7:50 PM
First Quarter, 55% visible
Pressure 30.05 in
Visibility 10.0 miles
Clouds Scattered Clouds 5000 ft
Scattered Clouds 6500 ft
Mostly Cloudy 8500 ft
Heat Index 80 °F
Dew Point 73 °F
Humidity 84%
Rainfall 0.01 in
Snow Depth Not available.
UV 2 out of 12
Pollen 8.50 out of 12
Air Quality Not available.
Flu Activity Not available.
METAR KLWB 022115Z AUTO 32004KT 10SM VCTS SCT050 SCT065 BKN085 29/17 A3005 RMK AO2 LTG DSNT NE T02920167

More Conditions Fewer Conditions

Pressure 30.05 in
Visibility 10.0 miles
Clouds Scattered Clouds 5000 ft
Scattered Clouds 6500 ft
Mostly Cloudy 8500 ft
Heat Index 80 °F
Dew Point 73 °F
Humidity 84%
Rainfall 0.01 in
Snow Depth Not available.
UV 2 out of 12
Pollen 8.50 out of 12
Air Quality Not available.
Flu Activity Not available.
METAR KLWB 022115Z AUTO 32004KT 10SM VCTS SCT050 SCT065 BKN085 29/17 A3005 RMK AO2 LTG DSNT NE T02920167

More Conditions Fewer Conditions

10-Day Weather Forecast

Almanac

Astronomy

Sep. 02, 2014 Rise Set
Actual Time 6:52 AM EDT 7:50 PM EDT
Civil Twilight 6:25 AM EDT 8:17 PM EDT
Nautical Twilight 5:53 AM EDT 8:49 PM EDT
Astronomical Twilight 5:19 AM EDT 9:22 PM EDT
Moon 2:29 PM EDT No Moon Set
Length of Visible Light 13h 52m
Length of Day
12h 58m
Tomorrow will be 2m 25s shorter.
First Quarter, 55% of the Moon is Illuminated
Today
First Quarter
Sep 8
Full
Sep 15
Last Quarter
Sep 24
New
Oct 1
First Quarter

Today's Extremes

State Highs State Lows

Community

WunderPhotos

Upload Photos

1,749,769 photos uploaded!

Nearby

Snow Depth

Station Depth Elevation
No new snow has been reported.

Earthquake Activity

City Distance Mag. Time & Date
No recent earthquake activity has been reported nearby.
Minimum magnitude displayed is 2.5.

Coastal Water Temperatures

Place Temperature
No Stations Reporting

Nearby Weather Stations